sensor_id;sensor_type;location;lat;lon;timestamp;temperature;humidity
17284;DHT22;8760;52.248;20.952;2022-07-05T00:00:51;19.20;99.90
17284;DHT22;8760;52.248;20.952;2022-07-05T00:03:18;19.20;99.90
17284;DHT22;8760;52.248;20.952;2022-07-05T00:05:45;19.20;99.90
17284;DHT22;8760;52.248;20.952;2022-07-05T00:08:12;19.20;99.90
17284;DHT22;8760;52.248;20.952;2022-07-05T00:10:39;19.10;99.90
17284;DHT22;8760;52.248;20.952;2022-07-05T00:13:06;19.00;99.90
17284;DHT22;8760;52.248;20.952;2022-07-05T00:15:34;19.10;99.90
17284;DHT22;8760;52.248;20.952;2022-07-05T00:18:02;19.00;99.90
17284;DHT22;8760;52.248;20.952;2022-07-05T00:20:29;19.10;99.90
17284;DHT22;8760;52.248;20.952;2022-07-05T00:22:55;19.00;99.90
17284;DHT22;8760;52.248;20.952;2022-07-05T00:25:22;19.00;99.90
17284;DHT22;8760;52.248;20.952;2022-07-05T00:27:49;19.00;99.90
17284;DHT22;8760;52.248;20.952;2022-07-05T00:30:18;19.00;99.90
17284;DHT22;8760;52.248;20.952;2022-07-05T00:32:47;19.00;99.90
17284;DHT22;8760;52.248;20.952;2022-07-05T00:35:13;19.00;99.90
17284;DHT22;8760;52.248;20.952;2022-07-05T00:37:40;19.00;99.90
17284;DHT22;8760;52.248;20.952;2022-07-05T00:40:07;19.00;99.90
17284;DHT22;8760;52.248;20.952;2022-07-05T00:42:34;18.90;99.90
17284;DHT22;8760;52.248;20.952;2022-07-05T00:45:03;18.90;99.90
17284;DHT22;8760;52.248;20.952;2022-07-05T00:47:30;18.90;99.90
17284;DHT22;8760;52.248;20.952;2022-07-05T00:49:58;18.90;99.90
17284;DHT22;8760;52.248;20.952;2022-07-05T00:52:25;18.90;99.90
17284;DHT22;8760;52.248;20.952;2022-07-05T00:54:52;18.90;99.90
17284;DHT22;8760;52.248;20.952;2022-07-05T00:57:20;19.00;99.90
17284;DHT22;8760;52.248;20.952;2022-07-05T00:59:47;19.00;99.90
17284;DHT22;8760;52.248;20.952;2022-07-05T01:02:14;19.20;99.90
17284;DHT22;8760;52.248;20.952;2022-07-05T01:04:41;19.20;99.90
17284;DHT22;8760;52.248;20.952;2022-07-05T01:07:09;19.20;99.90
17284;DHT22;8760;52.248;20.952;2022-07-05T01:09:36;19.20;99.90
17284;DHT22;8760;52.248;20.952;2022-07-05T01:12:03;19.30;99.90
17284;DHT22;8760;52.248;20.952;2022-07-05T01:14:30;19.30;92.70
17284;DHT22;8760;52.248;20.952;2022-07-05T01:16:57;19.40;91.30
17284;DHT22;8760;52.248;20.952;2022-07-05T01:19:24;19.40;78.60
17284;DHT22;8760;52.248;20.952;2022-07-05T01:21:51;19.40;83.20
17284;DHT22;8760;52.248;20.952;2022-07-05T01:24:19;19.30;66.60
17284;DHT22;8760;52.248;20.952;2022-07-05T01:26:49;19.30;78.50
17284;DHT22;8760;52.248;20.952;2022-07-05T01:29:17;19.30;67.40
17284;DHT22;8760;52.248;20.952;2022-07-05T01:31:44;19.20;90.90
17284;DHT22;8760;52.248;20.952;2022-07-05T01:34:11;19.20;93.70
17284;DHT22;8760;52.248;20.952;2022-07-05T01:36:38;19.10;95.40
17284;DHT22;8760;52.248;20.952;2022-07-05T01:39:06;19.10;99.90
17284;DHT22;8760;52.248;20.952;2022-07-05T01:41:35;19.00;99.90
17284;DHT22;8760;52.248;20.952;2022-07-05T01:44:02;19.00;99.90
17284;DHT22;8760;52.248;20.952;2022-07-05T01:46:31;18.90;99.90
17284;DHT22;8760;52.248;20.952;2022-07-05T01:49:04;18.90;99.90
17284;DHT22;8760;52.248;20.952;2022-07-05T01:51:34;18.80;99.90
17284;DHT22;8760;52.248;20.952;2022-07-05T01:54:04;18.80;99.90
17284;DHT22;8760;52.248;20.952;2022-07-05T01:56:31;18.80;99.90
17284;DHT22;8760;52.248;20.952;2022-07-05T01:58:59;18.70;99.90
17284;DHT22;8760;52.248;20.952;2022-07-05T02:01:34;18.70;99.90
17284;DHT22;8760;52.248;20.952;2022-07-05T02:04:02;18.70;99.90
17284;DHT22;8760;52.248;20.952;2022-07-05T02:06:30;18.60;99.90
17284;DHT22;8760;52.248;20.952;2022-07-05T02:08:57;18.60;99.90
17284;DHT22;8760;52.248;20.952;2022-07-05T02:11:24;18.60;99.90
17284;DHT22;8760;52.248;20.952;2022-07-05T02:13:51;18.50;99.90
17284;DHT22;8760;52.248;20.952;2022-07-05T02:16:22;18.50;99.90
17284;DHT22;8760;52.248;20.952;2022-07-05T02:18:49;18.50;99.90
17284;DHT22;8760;52.248;20.952;2022-07-05T02:21:15;18.40;99.90
17284;DHT22;8760;52.248;20.952;2022-07-05T02:23:42;18.50;99.90
17284;DHT22;8760;52.248;20.952;2022-07-05T02:26:09;18.50;99.90
17284;DHT22;8760;52.248;20.952;2022-07-05T02:28:36;18.50;99.90
17284;DHT22;8760;52.248;20.952;2022-07-05T02:31:02;18.50;99.90
17284;DHT22;8760;52.248;20.952;2022-07-05T02:33:31;18.50;99.90
17284;DHT22;8760;52.248;20.952;2022-07-05T02:35:59;18.50;99.90
17284;DHT22;8760;52.248;20.952;2022-07-05T02:38:31;18.60;99.90
17284;DHT22;8760;52.248;20.952;2022-07-05T02:40:57;18.60;99.90
17284;DHT22;8760;52.248;20.952;2022-07-05T02:43:24;18.60;99.90
17284;DHT22;8760;52.248;20.952;2022-07-05T02:45:51;18.50;99.90
17284;DHT22;8760;52.248;20.952;2022-07-05T02:48:18;18.50;99.90
17284;DHT22;8760;52.248;20.952;2022-07-05T02:50:46;18.60;99.90
17284;DHT22;8760;52.248;20.952;2022-07-05T02:53:13;18.50;99.90
17284;DHT22;8760;52.248;20.952;2022-07-05T02:55:40;18.50;99.90
17284;DHT22;8760;52.248;20.952;2022-07-05T02:58:06;18.50;99.90
17284;DHT22;8760;52.248;20.952;2022-07-05T03:00:33;18.50;99.90
17284;DHT22;8760;52.248;20.952;2022-07-05T03:03:00;18.50;99.90
17284;DHT22;8760;52.248;20.952;2022-07-05T03:05:27;18.50;99.90
17284;DHT22;8760;52.248;20.952;2022-07-05T03:07:55;18.60;99.90
17284;DHT22;8760;52.248;20.952;2022-07-05T03:10:22;18.70;99.90
17284;DHT22;8760;52.248;20.952;2022-07-05T03:12:50;18.70;99.90
17284;DHT22;8760;52.248;20.952;2022-07-05T03:15:17;18.80;99.90
17284;DHT22;8760;52.248;20.952;2022-07-05T03:17:44;18.80;89.80
17284;DHT22;8760;52.248;20.952;2022-07-05T03:20:11;18.90;60.30
17284;DHT22;8760;52.248;20.952;2022-07-05T03:22:38;18.80;85.10
17284;DHT22;8760;52.248;20.952;2022-07-05T03:25:07;18.80;54.10
17284;DHT22;8760;52.248;20.952;2022-07-05T03:27:34;18.80;59.50
17284;DHT22;8760;52.248;20.952;2022-07-05T03:30:01;18.80;33.20
17284;DHT22;8760;52.248;20.952;2022-07-05T03:32:27;18.80;31.50
17284;DHT22;8760;52.248;20.952;2022-07-05T03:34:54;18.90;11.50
17284;DHT22;8760;52.248;20.952;2022-07-05T03:37:21;18.80;7.60
17284;DHT22;8760;52.248;20.952;2022-07-05T03:39:48;18.90;5.20
17284;DHT22;8760;52.248;20.952;2022-07-05T03:42:16;18.90;1.00
17284;DHT22;8760;52.248;20.952;2022-07-05T03:44:42;18.90;1.00
17284;DHT22;8760;52.248;20.952;2022-07-05T03:47:09;18.90;1.00
17284;DHT22;8760;52.248;20.952;2022-07-05T03:49:36;18.90;1.00
17284;DHT22;8760;52.248;20.952;2022-07-05T03:52:03;18.90;1.00
17284;DHT22;8760;52.248;20.952;2022-07-05T03:54:30;18.90;1.00
17284;DHT22;8760;52.248;20.952;2022-07-05T03:56:57;18.90;1.00
17284;DHT22;8760;52.248;20.952;2022-07-05T03:59:25;18.90;1.00
17284;DHT22;8760;52.248;20.952;2022-07-05T04:01:51;18.90;1.00
17284;DHT22;8760;52.248;20.952;2022-07-05T04:04:18;18.90;1.00
17284;DHT22;8760;52.248;20.952;2022-07-05T04:06:45;18.90;1.00
17284;DHT22;8760;52.248;20.952;2022-07-05T04:09:12;18.90;1.00
17284;DHT22;8760;52.248;20.952;2022-07-05T04:11:38;18.90;1.00
17284;DHT22;8760;52.248;20.952;2022-07-05T04:14:05;18.90;1.00
17284;DHT22;8760;52.248;20.952;2022-07-05T04:16:36;18.90;1.00
17284;DHT22;8760;52.248;20.952;2022-07-05T04:19:02;18.90;1.00
17284;DHT22;8760;52.248;20.952;2022-07-05T04:21:29;18.90;1.00
17284;DHT22;8760;52.248;20.952;2022-07-05T04:23:56;18.90;1.00
17284;DHT22;8760;52.248;20.952;2022-07-05T04:26:23;18.90;1.00
17284;DHT22;8760;52.248;20.952;2022-07-05T04:28:49;18.90;1.00
17284;DHT22;8760;52.248;20.952;2022-07-05T04:31:16;18.90;99.90
17284;DHT22;8760;52.248;20.952;2022-07-05T04:33:45;18.90;1.00
17284;DHT22;8760;52.248;20.952;2022-07-05T04:36:12;19.00;1.00
17284;DHT22;8760;52.248;20.952;2022-07-05T04:38:38;19.00;99.90
17284;DHT22;8760;52.248;20.952;2022-07-05T04:41:05;19.10;1.00
17284;DHT22;8760;52.248;20.952;2022-07-05T04:43:32;19.20;99.90
17284;DHT22;8760;52.248;20.952;2022-07-05T04:45:59;19.20;1.00
17284;DHT22;8760;52.248;20.952;2022-07-05T04:48:26;19.20;1.00
17284;DHT22;8760;52.248;20.952;2022-07-05T04:50:54;19.30;99.90
17284;DHT22;8760;52.248;20.952;2022-07-05T04:53:21;19.30;1.00
17284;DHT22;8760;52.248;20.952;2022-07-05T04:55:48;19.30;99.90
17284;DHT22;8760;52.248;20.952;2022-07-05T04:58:15;19.40;99.90
17284;DHT22;8760;52.248;20.952;2022-07-05T05:00:41;19.40;99.90
17284;DHT22;8760;52.248;20.952;2022-07-05T05:03:08;19.40;1.00
17284;DHT22;8760;52.248;20.952;2022-07-05T05:05:35;19.40;99.90
17284;DHT22;8760;52.248;20.952;2022-07-05T05:08:03;19.40;99.90
17284;DHT22;8760;52.248;20.952;2022-07-05T05:10:30;19.50;1.00
17284;DHT22;8760;52.248;20.952;2022-07-05T05:12:57;19.40;1.00
17284;DHT22;8760;52.248;20.952;2022-07-05T05:15:24;19.50;1.00
17284;DHT22;8760;52.248;20.952;2022-07-05T05:17:50;19.60;1.00
17284;DHT22;8760;52.248;20.952;2022-07-05T05:20:18;19.60;99.90
17284;DHT22;8760;52.248;20.952;2022-07-05T05:22:45;19.70;1.00
17284;DHT22;8760;52.248;20.952;2022-07-05T05:25:14;19.80;99.90
17284;DHT22;8760;52.248;20.952;2022-07-05T05:27:42;19.80;1.00
17284;DHT22;8760;52.248;20.952;2022-07-05T05:30:10;19.90;49.90
17284;DHT22;8760;52.248;20.952;2022-07-05T05:32:37;20.00;99.90
17284;DHT22;8760;52.248;20.952;2022-07-05T05:35:05;20.00;99.90
17284;DHT22;8760;52.248;20.952;2022-07-05T05:37:45;20.10;1.00
17284;DHT22;8760;52.248;20.952;2022-07-05T05:40:13;20.20;99.90
17284;DHT22;8760;52.248;20.952;2022-07-05T05:42:40;20.20;18.80
17284;DHT22;8760;52.248;20.952;2022-07-05T05:45:07;20.30;1.00
17284;DHT22;8760;52.248;20.952;2022-07-05T05:47:43;20.30;1.00
17284;DHT22;8760;52.248;20.952;2022-07-05T05:50:10;20.40;72.20
17284;DHT22;8760;52.248;20.952;2022-07-05T05:52:37;20.40;1.00
17284;DHT22;8760;52.248;20.952;2022-07-05T05:55:04;20.60;1.00
17284;DHT22;8760;52.248;20.952;2022-07-05T05:57:33;20.70;3.10
17284;DHT22;8760;52.248;20.952;2022-07-05T06:00:00;20.80;99.90
17284;DHT22;8760;52.248;20.952;2022-07-05T06:02:27;20.90;99.90
17284;DHT22;8760;52.248;20.952;2022-07-05T06:04:54;20.90;99.90
17284;DHT22;8760;52.248;20.952;2022-07-05T06:07:20;21.00;15.30
17284;DHT22;8760;52.248;20.952;2022-07-05T06:09:47;21.00;99.90
17284;DHT22;8760;52.248;20.952;2022-07-05T06:12:14;21.00;43.00
17284;DHT22;8760;52.248;20.952;2022-07-05T06:14:42;21.10;99.90
17284;DHT22;8760;52.248;20.952;2022-07-05T06:17:09;21.20;1.00
17284;DHT22;8760;52.248;20.952;2022-07-05T06:19:36;21.30;99.90
17284;DHT22;8760;52.248;20.952;2022-07-05T06:22:03;21.20;99.90
17284;DHT22;8760;52.248;20.952;2022-07-05T06:24:30;21.30;99.90
17284;DHT22;8760;52.248;20.952;2022-07-05T06:26:57;21.30;1.00
17284;DHT22;8760;52.248;20.952;2022-07-05T06:29:24;21.50;1.00
17284;DHT22;8760;52.248;20.952;2022-07-05T06:31:52;21.80;99.90
17284;DHT22;8760;52.248;20.952;2022-07-05T06:34:18;22.00;99.90
17284;DHT22;8760;52.248;20.952;2022-07-05T06:36:45;22.10;1.00
17284;DHT22;8760;52.248;20.952;2022-07-05T06:39:12;22.30;1.00
17284;DHT22;8760;52.248;20.952;2022-07-05T06:41:39;22.40;99.90
17284;DHT22;8760;52.248;20.952;2022-07-05T06:44:06;22.50;1.00
17284;DHT22;8760;52.248;20.952;2022-07-05T06:46:32;22.70;1.00
17284;DHT22;8760;52.248;20.952;2022-07-05T06:49:01;22.80;99.90
17284;DHT22;8760;52.248;20.952;2022-07-05T06:51:27;22.90;1.00
17284;DHT22;8760;52.248;20.952;2022-07-05T06:53:54;22.90;1.00
17284;DHT22;8760;52.248;20.952;2022-07-05T06:56:21;23.20;1.00
17284;DHT22;8760;52.248;20.952;2022-07-05T06:58:47;23.40;99.90
17284;DHT22;8760;52.248;20.952;2022-07-05T07:01:14;23.70;99.90
17284;DHT22;8760;52.248;20.952;2022-07-05T07:03:41;23.90;1.00
17284;DHT22;8760;52.248;20.952;2022-07-05T07:06:09;24.10;1.00
17284;DHT22;8760;52.248;20.952;2022-07-05T07:08:36;24.20;1.00
17284;DHT22;8760;52.248;20.952;2022-07-05T07:11:20;24.30;1.00
17284;DHT22;8760;52.248;20.952;2022-07-05T07:13:47;24.40;1.00
17284;DHT22;8760;52.248;20.952;2022-07-05T07:16:14;24.70;99.90
17284;DHT22;8760;52.248;20.952;2022-07-05T07:18:40;24.70;1.00
17284;DHT22;8760;52.248;20.952;2022-07-05T07:21:08;24.90;99.90
17284;DHT22;8760;52.248;20.952;2022-07-05T07:23:38;25.10;1.00
17284;DHT22;8760;52.248;20.952;2022-07-05T07:26:05;25.30;1.00
17284;DHT22;8760;52.248;20.952;2022-07-05T07:28:32;25.40;99.90
17284;DHT22;8760;52.248;20.952;2022-07-05T07:30:58;25.80;99.90
17284;DHT22;8760;52.248;20.952;2022-07-05T07:33:25;25.90;99.90
17284;DHT22;8760;52.248;20.952;2022-07-05T07:35:53;26.10;99.90
17284;DHT22;8760;52.248;20.952;2022-07-05T07:38:21;26.20;99.90
17284;DHT22;8760;52.248;20.952;2022-07-05T07:40:49;26.50;1.00
17284;DHT22;8760;52.248;20.952;2022-07-05T07:43:15;26.70;1.00
17284;DHT22;8760;52.248;20.952;2022-07-05T07:45:42;27.20;1.00
17284;DHT22;8760;52.248;20.952;2022-07-05T07:48:09;27.30;1.00
17284;DHT22;8760;52.248;20.952;2022-07-05T07:50:36;27.70;1.00
17284;DHT22;8760;52.248;20.952;2022-07-05T07:53:03;28.00;1.00
17284;DHT22;8760;52.248;20.952;2022-07-05T07:55:31;28.00;1.00
17284;DHT22;8760;52.248;20.952;2022-07-05T07:57:58;28.10;1.00
17284;DHT22;8760;52.248;20.952;2022-07-05T08:00:25;28.40;1.00
17284;DHT22;8760;52.248;20.952;2022-07-05T08:02:51;28.50;1.00
17284;DHT22;8760;52.248;20.952;2022-07-05T08:05:18;28.50;1.00
17284;DHT22;8760;52.248;20.952;2022-07-05T08:07:45;28.80;1.00
17284;DHT22;8760;52.248;20.952;2022-07-05T08:10:12;29.20;1.00
17284;DHT22;8760;52.248;20.952;2022-07-05T08:12:40;29.20;1.00
17284;DHT22;8760;52.248;20.952;2022-07-05T08:15:07;29.50;1.00
17284;DHT22;8760;52.248;20.952;2022-07-05T08:17:34;29.60;99.90
17284;DHT22;8760;52.248;20.952;2022-07-05T08:20:02;29.80;99.90
17284;DHT22;8760;52.248;20.952;2022-07-05T08:22:46;30.20;99.90
17284;DHT22;8760;52.248;20.952;2022-07-05T08:25:13;30.50;99.90
17284;DHT22;8760;52.248;20.952;2022-07-05T08:27:43;30.70;99.90
17284;DHT22;8760;52.248;20.952;2022-07-05T08:30:11;30.90;99.90
17284;DHT22;8760;52.248;20.952;2022-07-05T08:32:38;30.60;99.90
17284;DHT22;8760;52.248;20.952;2022-07-05T08:35:05;30.50;99.90
17284;DHT22;8760;52.248;20.952;2022-07-05T08:37:32;30.00;99.90
17284;DHT22;8760;52.248;20.952;2022-07-05T08:39:58;29.80;99.90
17284;DHT22;8760;52.248;20.952;2022-07-05T08:42:25;30.00;99.90
17284;DHT22;8760;52.248;20.952;2022-07-05T08:44:55;30.10;99.90
17284;DHT22;8760;52.248;20.952;2022-07-05T08:47:24;30.10;99.90
17284;DHT22;8760;52.248;20.952;2022-07-05T08:49:53;30.30;99.90
17284;DHT22;8760;52.248;20.952;2022-07-05T08:52:22;30.40;99.90
17284;DHT22;8760;52.248;20.952;2022-07-05T08:54:51;30.60;99.90
17284;DHT22;8760;52.248;20.952;2022-07-05T08:57:18;30.90;99.90
17284;DHT22;8760;52.248;20.952;2022-07-05T08:59:45;31.10;99.90
17284;DHT22;8760;52.248;20.952;2022-07-05T09:02:16;31.50;99.90
17284;DHT22;8760;52.248;20.952;2022-07-05T09:04:45;31.50;99.90
17284;DHT22;8760;52.248;20.952;2022-07-05T09:07:14;31.20;99.90
17284;DHT22;8760;52.248;20.952;2022-07-05T09:09:42;30.90;99.90
17284;DHT22;8760;52.248;20.952;2022-07-05T09:12:11;30.80;99.90
17284;DHT22;8760;52.248;20.952;2022-07-05T09:14:39;30.30;99.90
17284;DHT22;8760;52.248;20.952;2022-07-05T09:17:06;30.00;99.90
17284;DHT22;8760;52.248;20.952;2022-07-05T09:19:36;29.50;99.90
17284;DHT22;8760;52.248;20.952;2022-07-05T09:22:03;29.60;99.90
17284;DHT22;8760;52.248;20.952;2022-07-05T09:24:30;29.80;99.90
17284;DHT22;8760;52.248;20.952;2022-07-05T09:27:04;30.10;99.90
17284;DHT22;8760;52.248;20.952;2022-07-05T09:29:31;30.10;99.90
17284;DHT22;8760;52.248;20.952;2022-07-05T09:31:58;30.20;99.90
17284;DHT22;8760;52.248;20.952;2022-07-05T09:34:25;30.10;99.90
17284;DHT22;8760;52.248;20.952;2022-07-05T09:36:57;29.70;99.90
17284;DHT22;8760;52.248;20.952;2022-07-05T09:39:40;30.20;99.90
17284;DHT22;8760;52.248;20.952;2022-07-05T09:42:14;30.90;99.90
17284;DHT22;8760;52.248;20.952;2022-07-05T09:44:44;31.90;99.90
17284;DHT22;8760;52.248;20.952;2022-07-05T09:47:12;32.40;99.90
17284;DHT22;8760;52.248;20.952;2022-07-05T09:49:42;32.80;99.90
17284;DHT22;8760;52.248;20.952;2022-07-05T09:52:11;32.80;99.90
17284;DHT22;8760;52.248;20.952;2022-07-05T09:54:38;32.60;99.90
17284;DHT22;8760;52.248;20.952;2022-07-05T09:57:06;32.40;99.90
17284;DHT22;8760;52.248;20.952;2022-07-05T09:59:32;32.10;99.90
17284;DHT22;8760;52.248;20.952;2022-07-05T10:01:59;31.60;99.90
17284;DHT22;8760;52.248;20.952;2022-07-05T10:04:26;31.10;99.90
17284;DHT22;8760;52.248;20.952;2022-07-05T10:06:53;30.70;99.90
17284;DHT22;8760;52.248;20.952;2022-07-05T10:09:21;30.20;99.90
17284;DHT22;8760;52.248;20.952;2022-07-05T10:11:48;29.80;99.90
17284;DHT22;8760;52.248;20.952;2022-07-05T10:14:18;29.40;99.90
17284;DHT22;8760;52.248;20.952;2022-07-05T10:16:51;29.00;99.90
17284;DHT22;8760;52.248;20.952;2022-07-05T10:19:19;28.80;99.90
17284;DHT22;8760;52.248;20.952;2022-07-05T10:21:46;28.70;99.90
17284;DHT22;8760;52.248;20.952;2022-07-05T10:24:13;28.40;99.90
17284;DHT22;8760;52.248;20.952;2022-07-05T10:26:44;28.10;99.90
17284;DHT22;8760;52.248;20.952;2022-07-05T10:29:13;28.00;99.90
17284;DHT22;8760;52.248;20.952;2022-07-05T10:31:41;27.90;99.90
17284;DHT22;8760;52.248;20.952;2022-07-05T10:34:09;27.70;99.90
17284;DHT22;8760;52.248;20.952;2022-07-05T10:36:36;27.60;99.90
17284;DHT22;8760;52.248;20.952;2022-07-05T10:39:05;27.60;99.90
17284;DHT22;8760;52.248;20.952;2022-07-05T10:41:32;27.70;99.90
17284;DHT22;8760;52.248;20.952;2022-07-05T10:44:00;27.70;1.00
17284;DHT22;8760;52.248;20.952;2022-07-05T10:46:34;27.70;1.00
17284;DHT22;8760;52.248;20.952;2022-07-05T10:49:13;27.70;1.00
17284;DHT22;8760;52.248;20.952;2022-07-05T10:51:41;27.60;1.00
17284;DHT22;8760;52.248;20.952;2022-07-05T10:54:08;27.60;1.00
17284;DHT22;8760;52.248;20.952;2022-07-05T10:56:34;27.80;1.00
17284;DHT22;8760;52.248;20.952;2022-07-05T10:59:07;27.80;1.00
17284;DHT22;8760;52.248;20.952;2022-07-05T11:01:39;27.80;1.00
17284;DHT22;8760;52.248;20.952;2022-07-05T11:04:33;27.90;1.00
17284;DHT22;8760;52.248;20.952;2022-07-05T11:07:01;28.00;1.00
17284;DHT22;8760;52.248;20.952;2022-07-05T11:09:28;28.00;1.00
17284;DHT22;8760;52.248;20.952;2022-07-05T11:12:08;28.10;1.00
17284;DHT22;8760;52.248;20.952;2022-07-05T11:14:38;28.20;1.00
17284;DHT22;8760;52.248;20.952;2022-07-05T11:17:22;28.30;1.00
17284;DHT22;8760;52.248;20.952;2022-07-05T11:23:11;28.20;1.00
17284;DHT22;8760;52.248;20.952;2022-07-05T11:25:41;28.30;1.00
17284;DHT22;8760;52.248;20.952;2022-07-05T11:28:18;28.40;1.00
17284;DHT22;8760;52.248;20.952;2022-07-05T11:30:57;28.40;1.00
17284;DHT22;8760;52.248;20.952;2022-07-05T11:33:32;28.40;99.90
17284;DHT22;8760;52.248;20.952;2022-07-05T11:36:00;28.40;99.90
17284;DHT22;8760;52.248;20.952;2022-07-05T11:38:27;28.40;99.90
17284;DHT22;8760;52.248;20.952;2022-07-05T11:40:56;28.40;99.90
17284;DHT22;8760;52.248;20.952;2022-07-05T11:43:36;28.40;99.90
17284;DHT22;8760;52.248;20.952;2022-07-05T11:46:05;28.40;99.90
17284;DHT22;8760;52.248;20.952;2022-07-05T11:48:32;28.70;99.90
17284;DHT22;8760;52.248;20.952;2022-07-05T11:51:12;28.90;99.90
17284;DHT22;8760;52.248;20.952;2022-07-05T11:53:40;28.90;99.90
17284;DHT22;8760;52.248;20.952;2022-07-05T11:56:08;28.80;99.90
17284;DHT22;8760;52.248;20.952;2022-07-05T11:58:35;28.70;99.90
17284;DHT22;8760;52.248;20.952;2022-07-05T12:01:02;28.50;99.90
17284;DHT22;8760;52.248;20.952;2022-07-05T12:03:32;28.40;99.90
17284;DHT22;8760;52.248;20.952;2022-07-05T12:06:09;28.30;99.90
17284;DHT22;8760;52.248;20.952;2022-07-05T12:08:36;28.10;99.90
17284;DHT22;8760;52.248;20.952;2022-07-05T12:11:03;28.00;99.90
17284;DHT22;8760;52.248;20.952;2022-07-05T12:13:48;27.90;99.90
17284;DHT22;8760;52.248;20.952;2022-07-05T12:16:16;27.80;99.90
17284;DHT22;8760;52.248;20.952;2022-07-05T12:18:51;27.80;99.90
17284;DHT22;8760;52.248;20.952;2022-07-05T12:21:18;27.60;99.90
17284;DHT22;8760;52.248;20.952;2022-07-05T12:23:47;27.70;99.90
17284;DHT22;8760;52.248;20.952;2022-07-05T12:26:15;27.60;99.90
17284;DHT22;8760;52.248;20.952;2022-07-05T12:28:43;27.50;99.90
17284;DHT22;8760;52.248;20.952;2022-07-05T12:31:18;27.50;99.90
17284;DHT22;8760;52.248;20.952;2022-07-05T12:33:47;27.50;99.90
17284;DHT22;8760;52.248;20.952;2022-07-05T12:36:15;27.40;99.90
17284;DHT22;8760;52.248;20.952;2022-07-05T12:38:42;27.20;1.00
17284;DHT22;8760;52.248;20.952;2022-07-05T12:41:10;27.30;1.00
17284;DHT22;8760;52.248;20.952;2022-07-05T12:43:51;27.20;1.00
17284;DHT22;8760;52.248;20.952;2022-07-05T12:46:18;27.20;1.00
17284;DHT22;8760;52.248;20.952;2022-07-05T12:48:51;27.20;99.90
17284;DHT22;8760;52.248;20.952;2022-07-05T12:51:32;27.10;1.00
17284;DHT22;8760;52.248;20.952;2022-07-05T12:53:59;27.20;99.90
17284;DHT22;8760;52.248;20.952;2022-07-05T12:56:47;27.20;99.90
17284;DHT22;8760;52.248;20.952;2022-07-05T12:59:31;27.20;99.90
17284;DHT22;8760;52.248;20.952;2022-07-05T13:01:58;27.10;1.00
17284;DHT22;8760;52.248;20.952;2022-07-05T13:04:26;27.00;99.90
17284;DHT22;8760;52.248;20.952;2022-07-05T13:06:54;26.90;1.00
17284;DHT22;8760;52.248;20.952;2022-07-05T13:09:32;26.80;1.00
17284;DHT22;8760;52.248;20.952;2022-07-05T13:12:10;26.60;1.00
17284;DHT22;8760;52.248;20.952;2022-07-05T13:14:38;26.40;1.00
17284;DHT22;8760;52.248;20.952;2022-07-05T13:17:05;26.20;1.00
17284;DHT22;8760;52.248;20.952;2022-07-05T13:19:34;26.10;1.00
17284;DHT22;8760;52.248;20.952;2022-07-05T13:22:01;25.90;1.00
17284;DHT22;8760;52.248;20.952;2022-07-05T13:24:28;25.90;1.00
17284;DHT22;8760;52.248;20.952;2022-07-05T13:26:55;25.80;1.00
17284;DHT22;8760;52.248;20.952;2022-07-05T13:29:22;25.70;1.00
17284;DHT22;8760;52.248;20.952;2022-07-05T13:31:49;25.70;1.00
17284;DHT22;8760;52.248;20.952;2022-07-05T13:34:16;25.50;1.00
17284;DHT22;8760;52.248;20.952;2022-07-05T13:36:44;25.50;1.00
17284;DHT22;8760;52.248;20.952;2022-07-05T13:39:11;25.50;1.00
17284;DHT22;8760;52.248;20.952;2022-07-05T13:41:38;25.40;1.00
17284;DHT22;8760;52.248;20.952;2022-07-05T13:44:05;25.20;1.00
17284;DHT22;8760;52.248;20.952;2022-07-05T13:46:31;25.20;1.00
17284;DHT22;8760;52.248;20.952;2022-07-05T13:48:58;25.20;1.00
17284;DHT22;8760;52.248;20.952;2022-07-05T13:51:25;25.00;1.00
17284;DHT22;8760;52.248;20.952;2022-07-05T13:53:53;24.90;1.00
17284;DHT22;8760;52.248;20.952;2022-07-05T13:56:20;24.80;1.00
17284;DHT22;8760;52.248;20.952;2022-07-05T13:58:47;24.70;1.00
17284;DHT22;8760;52.248;20.952;2022-07-05T14:01:14;24.70;1.00
17284;DHT22;8760;52.248;20.952;2022-07-05T14:03:42;24.60;1.00
17284;DHT22;8760;52.248;20.952;2022-07-05T14:06:09;24.50;1.00
17284;DHT22;8760;52.248;20.952;2022-07-05T14:08:36;24.50;1.00
17284;DHT22;8760;52.248;20.952;2022-07-05T14:11:04;24.40;1.00
17284;DHT22;8760;52.248;20.952;2022-07-05T14:13:33;24.40;1.00
17284;DHT22;8760;52.248;20.952;2022-07-05T14:16:00;24.40;1.00
17284;DHT22;8760;52.248;20.952;2022-07-05T14:18:27;24.40;1.00
17284;DHT22;8760;52.248;20.952;2022-07-05T14:20:54;24.30;1.00
17284;DHT22;8760;52.248;20.952;2022-07-05T14:23:20;24.30;1.00
17284;DHT22;8760;52.248;20.952;2022-07-05T14:25:47;24.20;1.00
17284;DHT22;8760;52.248;20.952;2022-07-05T14:28:15;24.10;1.00
17284;DHT22;8760;52.248;20.952;2022-07-05T14:30:44;24.10;1.00
17284;DHT22;8760;52.248;20.952;2022-07-05T14:33:12;24.00;1.00
17284;DHT22;8760;52.248;20.952;2022-07-05T14:35:40;23.90;1.00
17284;DHT22;8760;52.248;20.952;2022-07-05T14:38:07;23.90;1.00
17284;DHT22;8760;52.248;20.952;2022-07-05T14:40:35;23.80;1.00
17284;DHT22;8760;52.248;20.952;2022-07-05T14:43:03;23.50;1.00
17284;DHT22;8760;52.248;20.952;2022-07-05T14:45:31;23.20;97.80
17284;DHT22;8760;52.248;20.952;2022-07-05T14:47:58;22.80;67.30
17284;DHT22;8760;52.248;20.952;2022-07-05T14:50:25;22.60;1.00
17284;DHT22;8760;52.248;20.952;2022-07-05T14:52:52;22.20;1.00
17284;DHT22;8760;52.248;20.952;2022-07-05T14:55:18;22.00;99.90
17284;DHT22;8760;52.248;20.952;2022-07-05T14:57:45;21.80;1.00
17284;DHT22;8760;52.248;20.952;2022-07-05T15:00:14;21.80;99.90
17284;DHT22;8760;52.248;20.952;2022-07-05T15:02:43;21.60;1.00
17284;DHT22;8760;52.248;20.952;2022-07-05T15:05:10;21.40;1.00
17284;DHT22;8760;52.248;20.952;2022-07-05T15:07:38;21.30;1.00
17284;DHT22;8760;52.248;20.952;2022-07-05T15:10:06;21.10;1.00
17284;DHT22;8760;52.248;20.952;2022-07-05T15:12:33;20.90;1.00
17284;DHT22;8760;52.248;20.952;2022-07-05T15:15:00;20.80;99.90
17284;DHT22;8760;52.248;20.952;2022-07-05T15:17:27;20.70;1.00
17284;DHT22;8760;52.248;20.952;2022-07-05T15:19:55;20.60;1.00
17284;DHT22;8760;52.248;20.952;2022-07-05T15:22:22;20.50;1.00
17284;DHT22;8760;52.248;20.952;2022-07-05T15:24:51;20.40;1.00
17284;DHT22;8760;52.248;20.952;2022-07-05T15:27:18;20.40;1.00
17284;DHT22;8760;52.248;20.952;2022-07-05T15:29:45;20.30;17.30
17284;DHT22;8760;52.248;20.952;2022-07-05T15:32:12;20.20;30.60
17284;DHT22;8760;52.248;20.952;2022-07-05T15:34:39;20.20;43.60
17284;DHT22;8760;52.248;20.952;2022-07-05T15:37:07;20.10;75.50
17284;DHT22;8760;52.248;20.952;2022-07-05T15:39:33;20.00;72.60
17284;DHT22;8760;52.248;20.952;2022-07-05T15:42:03;19.90;93.90
17284;DHT22;8760;52.248;20.952;2022-07-05T15:44:30;19.90;99.90
17284;DHT22;8760;52.248;20.952;2022-07-05T15:46:56;19.70;99.90